Time;durP1;ratioP1;P1;durP2;ratioP2;P2;SDS_P1;SDS_P2;PMS_P1;PMS_P2;Temp;Humidity;BMP_temperature;BMP_pressure;BME280_temperature;BME280_humidity;BME280_pressure;Samples;Min_cycle;Max_cycle;Signal;HPM_P1;HPM_P2
2022/12/26 00:01:18;;;;;;;28.17;18.35;;;;;;;5.26;51.97;94721.28;4991506;28;20064;-72
2022/12/26 00:03:44;;;;;;;21.63;14.18;;;;;;;5.09;52.20;94709.09;4991557;28;20038;-72
2022/12/26 00:06:14;;;;;;;14.93;9.95;;;;;;;5.10;52.54;94723.84;4992712;28;20041;-73
2022/12/26 00:08:41;;;;;;;13.27;8.63;;;;;;;5.18;52.31;94727.06;4990587;28;20034;-72
2022/12/26 00:11:06;;;;;;;23.58;15.00;;;;;;;5.20;52.31;94730.22;4995381;28;20067;-72
2022/12/26 00:13:32;;;;;;;14.27;8.68;;;;;;;5.21;52.31;94721.28;4989752;28;20108;-74
2022/12/26 00:15:57;;;;;;;8.48;5.68;;;;;;;5.17;52.37;94738.66;4993831;28;20054;-72
2022/12/26 00:18:22;;;;;;;9.65;6.00;;;;;;;5.21;52.32;94743.16;4991108;28;20473;-72
2022/12/26 00:20:48;;;;;;;15.07;11.63;;;;;;;5.10;52.37;94736.25;4993639;28;20044;-73
2022/12/26 00:23:13;;;;;;;9.88;8.35;;;;;;;5.08;52.61;94744.44;4991764;28;20444;-73
2022/12/26 00:25:39;;;;;;;8.27;6.25;;;;;;;4.93;52.43;94719.81;4992530;28;20041;-73
2022/12/26 00:28:04;;;;;;;12.80;10.30;;;;;;;5.02;52.54;94744.66;4994126;28;20029;-72
2022/12/26 00:30:29;;;;;;;11.32;6.30;;;;;;;5.07;52.50;94748.13;4991893;28;20033;-73
2022/12/26 00:32:55;;;;;;;9.35;6.22;;;;;;;5.11;52.45;94757.09;4994518;28;20579;-72
2022/12/26 00:35:20;;;;;;;11.82;7.10;;;;;;;4.96;52.76;94740.41;4991795;28;20060;-74
2022/12/26 00:37:46;;;;;;;9.02;5.82;;;;;;;5.03;52.61;94747.03;4989504;28;20639;-74
2022/12/26 00:40:11;;;;;;;14.05;5.68;;;;;;;4.97;52.89;94732.25;4993351;28;20087;-75
2022/12/26 00:42:37;;;;;;;8.35;4.28;;;;;;;4.94;52.94;94722.19;4992548;28;20038;-75
2022/12/26 00:45:02;;;;;;;6.68;3.70;;;;;;;5.06;52.82;94743.88;4992670;28;20469;-75
2022/12/26 00:47:28;;;;;;;8.07;3.75;;;;;;;4.89;52.58;94705.56;4992741;28;20058;-73
2022/12/26 00:49:53;;;;;;;6.22;3.30;;;;;;;5.15;52.62;94749.47;4990731;28;20081;-76
2022/12/26 00:52:19;;;;;;;5.28;4.07;;;;;;;5.05;52.92;94744.94;4991998;28;20092;-76
2022/12/26 00:54:44;;;;;;;9.77;8.18;;;;;;;5.10;52.83;94739.69;4992522;28;20032;-72
2022/12/26 00:57:09;;;;;;;6.72;4.20;;;;;;;4.95;53.05;94733.53;4991110;28;20121;-73
2022/12/26 00:59:35;;;;;;;5.15;4.20;;;;;;;5.04;53.15;94745.97;4992557;28;20129;-72
2022/12/26 01:02:00;;;;;;;5.70;4.03;;;;;;;4.99;52.96;94739.91;4990693;28;20037;-74
2022/12/26 01:04:26;;;;;;;6.95;4.50;;;;;;;5.08;52.67;94754.19;4993735;28;20040;-74
2022/12/26 01:06:52;;;;;;;9.85;4.40;;;;;;;5.05;52.88;94754.69;4989106;28;20080;-75
2022/12/26 01:09:17;;;;;;;6.20;4.28;;;;;;;5.12;52.72;94758.69;4995406;28;20677;-74
2022/12/26 01:11:43;;;;;;;7.15;3.97;;;;;;;5.12;52.44;94761.31;4991030;28;20073;-74
2022/12/26 01:14:17;;;;;;;6.78;4.10;;;;;;;5.03;52.51;94757.59;4995454;28;20038;-74
2022/12/26 01:16:45;;;;;;;7.10;3.57;;;;;;;4.96;53.08;94749.09;4996126;28;20044;-74
2022/12/26 01:19:11;;;;;;;4.75;3.30;;;;;;;4.92;53.33;94771.75;5010349;28;20572;-74
2022/12/26 01:21:37;;;;;;;5.18;3.20;;;;;;;4.82;53.50;94765.59;4998134;28;20037;-73
2022/12/26 01:24:04;;;;;;;4.68;2.30;;;;;;;4.77;53.17;94747.94;4994388;28;20030;-75
2022/12/26 01:26:29;;;;;;;4.15;2.78;;;;;;;4.88;53.50;94786.50;4996784;28;20045;-73
2022/12/26 01:28:54;;;;;;;4.60;2.53;;;;;;;4.79;53.22;94793.28;4992096;28;20092;-74
2022/12/26 01:31:21;;;;;;;4.68;2.90;;;;;;;4.78;53.00;94778.50;4997212;28;20034;-75
2022/12/26 01:33:47;;;;;;;8.27;3.60;;;;;;;4.82;52.99;94790.13;4993953;28;20112;-74
2022/12/26 01:36:13;;;;;;;5.15;3.80;;;;;;;4.77;53.24;94795.38;4997189;28;20024;-75
2022/12/26 01:38:38;;;;;;;11.30;6.22;;;;;;;4.84;53.32;94785.41;4994276;28;20543;-75
2022/12/26 01:41:16;;;;;;;5.63;3.97;;;;;;;4.76;53.16;94770.06;4991928;28;20321;-74
2022/12/26 01:43:52;;;;;;;6.80;3.67;;;;;;;4.70;53.31;94768.41;4995626;28;20497;-74
2022/12/26 01:46:28;;;;;;;8.93;4.07;;;;;;;4.63;53.45;94762.59;4996060;28;20042;-75
2022/12/26 01:48:58;;;;;;;8.02;4.68;;;;;;;4.51;53.31;94739.03;4997307;28;20088;-75
2022/12/26 01:51:27;;;;;;;8.25;4.20;;;;;;;4.59;53.23;94762.31;4994165;28;20035;-74
2022/12/26 01:53:56;;;;;;;11.77;7.18;;;;;;;4.47;53.94;94742.44;4996741;28;20035;-75
2022/12/26 01:56:33;;;;;;;14.02;7.97;;;;;;;4.60;53.89;94763.09;4996007;28;20029;-74
2022/12/26 01:59:08;;;;;;;12.35;6.35;;;;;;;4.56;53.87;94762.00;4995156;28;20120;-76
2022/12/26 02:01:38;;;;;;;13.45;9.00;;;;;;;4.45;54.27;94745.34;4995422;28;20026;-77
2022/12/26 02:06:52;;;;;;;9.02;7.53;;;;;;;4.28;54.35;94734.88;4994793;28;20091;-72
2022/12/26 02:09:18;;;;;;;9.45;6.53;;;;;;;4.37;54.48;94752.88;4997509;28;20026;-74
2022/12/26 02:11:51;;;;;;;9.30;5.75;;;;;;;4.42;54.29;94750.28;4994385;28;20128;-73
2022/12/26 02:14:16;;;;;;;7.32;5.38;;;;;;;4.34;54.41;94737.59;4996485;28;20112;-72
2022/12/26 02:16:42;;;;;;;27.70;15.98;;;;;;;4.37;54.28;94742.34;4995190;28;20038;-74
2022/12/26 02:19:37;;;;;;;16.80;9.27;;;;;;;4.39;54.08;94738.44;4994445;28;20045;-73
2022/12/26 02:22:21;;;;;;;5.68;3.55;;;;;;;4.37;53.97;94747.63;4991295;28;20057;-72
2022/12/26 02:25:11;;;;;;;6.07;2.90;;;;;;;4.37;54.13;94751.03;4996241;28;20601;-73
2022/12/26 02:28:09;;;;;;;4.68;3.13;;;;;;;4.31;54.38;94744.16;4997416;28;20025;-73
2022/12/26 02:30:44;;;;;;;2.92;2.05;;;;;;;4.19;54.62;94736.41;4997558;28;20033;-74
2022/12/26 02:33:32;;;;;;;4.25;2.20;;;;;;;4.22;54.60;94735.09;4991770;28;20068;-73
2022/12/26 02:36:44;;;;;;;2.75;2.10;;;;;;;4.29;54.46;94735.69;4959717;28;20065;-72
2022/12/26 02:39:37;;;;;;;5.38;3.78;;;;;;;4.26;54.15;94738.81;4948143;28;20524;-73
2022/12/26 02:42:28;;;;;;;4.53;2.67;;;;;;;4.27;54.46;94741.19;4976157;28;20054;-76
2022/12/26 02:48:05;;;;;;;6.60;3.13;;;;;;;4.21;54.45;94744.81;4975443;28;20092;-74
2022/12/26 03:13:22;;;;;;;5.25;3.85;;;;;;;4.06;54.50;94736.78;4994052;28;20684;-75
2022/12/26 03:18:49;;;;;;;8.85;5.13;;;;;;;4.04;55.14;94741.53;4995115;28;20534;-75
2022/12/26 03:21:18;;;;;;;8.20;5.25;;;;;;;4.02;54.83;94737.53;4994557;28;20037;-74
2022/12/26 03:23:46;;;;;;;6.95;5.25;;;;;;;3.94;54.85;94733.53;4993409;28;20068;-72
2022/12/26 03:31:48;;;;;;;14.18;7.85;;;;;;;3.85;55.60;94758.72;4991990;28;20118;-75
2022/12/26 03:34:17;;;;;;;14.10;9.00;;;;;;;3.90;55.45;94756.13;4996292;28;20583;-76
2022/12/26 03:36:54;;;;;;;14.98;10.07;;;;;;;3.89;55.68;94737.94;4994679;28;20113;-74
2022/12/26 04:20:45;;;;;;;7.80;4.72;;;;;;;3.60;55.94;94755.81;4994268;28;20045;-73
2022/12/26 04:46:35;;;;;;;9.65;5.75;;;;;;;3.41;56.30;94755.34;4993372;28;20104;-76
2022/12/26 04:51:48;;;;;;;9.80;5.85;;;;;;;3.62;55.90;94761.63;4992431;28;20515;-75
2022/12/26 04:54:14;;;;;;;9.30;6.18;;;;;;;3.59;55.67;94770.00;4991516;28;20492;-73
2022/12/26 04:56:39;;;;;;;9.35;5.35;;;;;;;3.53;56.09;94776.22;4990584;28;20516;-74
2022/12/26 04:59:05;;;;;;;7.43;6.28;;;;;;;3.52;56.23;94779.91;4990209;28;20022;-74
2022/12/26 05:09:50;;;;;;;9.27;6.30;;;;;;;3.39;56.81;94771.34;4992423;28;20117;-74
2022/12/26 05:12:16;;;;;;;7.88;5.90;;;;;;;3.45;56.29;94763.50;4993425;28;20042;-74
2022/12/26 05:14:41;;;;;;;7.60;5.15;;;;;;;3.51;56.59;94767.81;4991735;28;20054;-74
2022/12/26 05:30:58;;;;;;;16.90;8.95;;;;;;;3.43;56.84;94792.69;4991602;28;20064;-72
2022/12/26 05:36:08;;;;;;;12.93;7.85;;;;;;;3.49;56.87;94806.69;4992327;28;20091;-73
2022/12/26 05:38:34;;;;;;;9.52;7.10;;;;;;;3.40;56.85;94791.34;4991289;28;20046;-72
2022/12/26 05:41:00;;;;;;;9.48;6.63;;;;;;;3.49;56.84;94804.06;4993228;28;20058;-73
2022/12/26 05:43:25;;;;;;;9.65;6.90;;;;;;;3.43;56.98;94797.16;4990729;28;20034;-72
2022/12/26 05:45:50;;;;;;;8.95;6.95;;;;;;;3.39;56.82;94792.38;4994983;28;20412;-72
2022/12/26 05:48:16;;;;;;;10.13;6.78;;;;;;;3.49;56.83;94801.44;4993718;28;20026;-72
2022/12/26 05:50:41;;;;;;;11.93;7.40;;;;;;;3.38;57.05;94788.16;4992822;28;20049;-72
2022/12/26 05:53:07;;;;;;;13.73;8.13;;;;;;;3.44;56.86;94780.31;4992653;28;20033;-72
2022/12/26 05:55:32;;;;;;;16.08;10.15;;;;;;;3.47;57.12;94801.69;4992880;28;20026;-73
2022/12/26 05:58:00;;;;;;;13.23;8.77;;;;;;;3.32;57.05;94790.97;4996771;28;20489;-72
2022/12/26 06:00:27;;;;;;;11.43;9.05;;;;;;;3.48;56.82;94802.50;4996349;28;20080;-74
2022/12/26 06:02:52;;;;;;;11.95;9.07;;;;;;;3.30;56.88;94772.81;4996006;28;20574;-73
2022/12/26 06:05:18;;;;;;;12.55;8.73;;;;;;;3.25;57.25;94782.47;4995465;28;20034;-73
2022/12/26 06:07:43;;;;;;;13.70;9.32;;;;;;;3.45;56.96;94795.06;4995161;28;20072;-73
2022/12/26 06:10:09;;;;;;;16.80;10.23;;;;;;;3.44;57.04;94801.38;4995385;28;20590;-74
2022/12/26 06:12:35;;;;;;;21.02;12.20;;;;;;;3.48;57.15;94798.00;4997087;28;20151;-72
2022/12/26 06:15:00;;;;;;;16.85;10.93;;;;;;;3.25;57.37;94799.03;4994969;28;20046;-72
2022/12/26 06:17:26;;;;;;;16.80;10.73;;;;;;;3.22;57.32;94796.91;4996741;28;20150;-73
2022/12/26 06:19:51;;;;;;;17.85;11.68;;;;;;;3.21;57.38;94803.19;4994600;28;20037;-75
2022/12/26 06:22:17;;;;;;;16.67;11.35;;;;;;;3.27;57.23;94802.22;4993468;28;20603;-73
2022/12/26 06:24:42;;;;;;;21.52;12.23;;;;;;;3.24;57.34;94813.22;4995476;28;20034;-72
2022/12/26 06:27:07;;;;;;;17.30;11.85;;;;;;;3.27;57.14;94817.22;4994456;28;20591;-75
2022/12/26 06:29:33;;;;;;;18.75;12.35;;;;;;;3.17;57.35;94809.97;4995190;28;20038;-72
2022/12/26 06:31:58;;;;;;;20.23;14.40;;;;;;;3.16;57.56;94813.63;4995964;28;20039;-76
2022/12/26 06:34:26;;;;;;;23.08;15.77;;;;;;;3.17;57.87;94814.44;4995591;28;20412;-74
2022/12/26 06:36:51;;;;;;;21.02;13.60;;;;;;;3.26;57.72;94826.13;4992964;28;20034;-75
2022/12/26 06:39:16;;;;;;;24.60;14.85;;;;;;;3.33;57.38;94827.53;4989162;28;20603;-76
2022/12/26 06:41:42;;;;;;;28.33;17.35;;;;;;;3.23;58.00;94819.50;4995419;28;20046;-74
2022/12/26 06:44:09;;;;;;;21.88;15.02;;;;;;;3.37;57.80;94818.16;4995420;28;20036;-74
2022/12/26 06:46:34;;;;;;;33.65;22.33;;;;;;;3.45;57.72;94829.25;4994644;28;20065;-74
2022/12/26 06:49:00;;;;;;;29.30;19.58;;;;;;;3.33;58.07;94811.75;4994292;28;20032;-76
2022/12/26 06:51:27;;;;;;;32.10;19.63;;;;;;;3.42;58.73;94821.88;4994829;28;20530;-74
2022/12/26 06:53:53;;;;;;;29.23;19.83;;;;;;;3.49;58.40;94825.09;4995738;28;21159;-71
2022/12/26 06:56:24;;;;;;;28.35;19.63;;;;;;;3.51;58.40;94825.66;4994950;28;20176;-72
2022/12/26 06:58:55;;;;;;;36.05;22.45;;;;;;;3.53;58.35;94841.97;4995379;28;20030;-72
2022/12/26 07:01:21;;;;;;;34.13;21.45;;;;;;;3.50;58.36;94837.22;4988469;28;20074;-73
2022/12/26 07:03:47;;;;;;;30.73;23.00;;;;;;;3.57;58.72;94835.22;4993419;28;20042;-73
2022/12/26 07:06:22;;;;;;;30.08;21.73;;;;;;;3.62;58.26;94840.53;4995742;28;20400;-73
2022/12/26 07:08:48;;;;;;;32.03;19.60;;;;;;;3.63;58.31;94842.13;4992505;28;20153;-73
2022/12/26 07:11:19;;;;;;;26.92;19.10;;;;;;;3.68;58.38;94844.81;4995683;28;20029;-72
2022/12/26 07:13:45;;;;;;;30.25;20.70;;;;;;;3.70;58.68;94854.06;5008452;28;20116;-76
2022/12/26 07:16:11;;;;;;;35.13;21.92;;;;;;;3.09;62.00;94864.78;4995140;28;20045;-73
2022/12/26 07:18:36;;;;;;;35.85;22.92;;;;;;;3.42;61.17;94863.94;4993881;28;20049;-72
2022/12/26 07:21:07;;;;;;;37.33;24.98;;;;;;;3.50;60.81;94855.63;4993866;28;20030;-74
2022/12/26 07:23:34;;;;;;;42.60;29.05;;;;;;;3.66;59.57;94847.69;4992918;28;20050;-74
2022/12/26 07:25:59;;;;;;;42.42;28.20;;;;;;;3.72;59.75;94856.47;4995343;28;21181;-75
2022/12/26 07:28:26;;;;;;;70.43;39.53;;;;;;;3.62;60.15;94843.19;4992915;28;20148;-76
2022/12/26 07:30:52;;;;;;;66.28;38.13;;;;;;;3.60;60.42;94832.09;4994770;28;20524;-74
2022/12/26 07:33:17;;;;;;;57.28;34.72;;;;;;;3.90;59.71;94850.09;4993799;28;20080;-75
2022/12/26 07:35:43;;;;;;;54.35;33.25;;;;;;;3.90;60.03;94842.97;4994050;28;20042;-74
2022/12/26 07:38:10;;;;;;;59.00;36.80;;;;;;;3.61;62.05;94852.91;4993184;28;20048;-75
2022/12/26 07:40:35;;;;;;;58.22;35.47;;;;;;;3.85;60.69;94850.81;5010657;28;20211;-72
2022/12/26 07:43:00;;;;;;;51.25;34.75;;;;;;;3.93;60.12;94825.88;4991672;28;20435;-74
2022/12/26 07:45:26;;;;;;;45.38;29.48;;;;;;;4.19;60.38;94849.63;4994446;28;20498;-75
2022/12/26 07:47:56;;;;;;;42.05;30.10;;;;;;;4.28;59.76;94845.50;4992280;28;20108;-75
2022/12/26 07:50:23;;;;;;;36.63;27.27;;;;;;;4.13;60.17;94829.53;4996403;28;20060;-72
2022/12/26 07:52:48;;;;;;;39.92;27.63;;;;;;;4.27;59.84;94822.84;4992088;28;20034;-74
2022/12/26 07:55:13;;;;;;;44.20;27.30;;;;;;;4.51;59.66;94843.63;4995693;28;20095;-73
2022/12/26 07:57:39;;;;;;;37.20;26.67;;;;;;;4.54;59.37;94827.34;4992735;28;20033;-75
2022/12/26 08:00:06;;;;;;;43.92;30.40;;;;;;;4.45;60.10;94839.38;4991855;28;20130;-74
2022/12/26 08:02:31;;;;;;;37.78;26.13;;;;;;;4.31;60.04;94823.16;4992717;28;20084;-74
2022/12/26 08:04:57;;;;;;;46.20;30.45;;;;;;;4.56;60.31;94841.81;4993405;28;20564;-74
2022/12/26 08:07:22;;;;;;;37.42;26.88;;;;;;;4.58;60.01;94844.22;4989319;28;20065;-75
2022/12/26 08:09:47;;;;;;;39.50;27.83;;;;;;;4.80;59.76;94846.75;4993721;28;20652;-74
2022/12/26 08:12:13;;;;;;;36.85;24.90;;;;;;;4.88;59.07;94838.41;4992484;28;20744;-74
2022/12/26 08:14:39;;;;;;;37.75;25.50;;;;;;;4.86;58.96;94828.13;4993593;28;20049;-74
2022/12/26 08:17:05;;;;;;;39.10;26.55;;;;;;;4.98;58.47;94827.94;5005149;28;20038;-75
2022/12/26 08:19:30;;;;;;;39.25;26.08;;;;;;;5.23;57.92;94840.50;4993712;28;20034;-74
2022/12/26 08:21:56;;;;;;;39.78;25.63;;;;;;;5.34;57.54;94842.94;4991683;28;20040;-74
2022/12/26 08:24:21;;;;;;;36.97;25.23;;;;;;;5.55;57.05;94849.13;4993993;28;20026;-74
2022/12/26 08:26:47;;;;;;;39.70;25.50;;;;;;;5.39;57.10;94845.59;4991071;28;20100;-74
2022/12/26 08:29:12;;;;;;;33.97;25.33;;;;;;;5.11;58.80;94848.59;4992871;28;20407;-75
2022/12/26 08:31:38;;;;;;;39.50;28.58;;;;;;;5.26;58.17;94850.53;4991312;28;20035;-74
2022/12/26 08:34:03;;;;;;;37.30;26.23;;;;;;;5.11;59.25;94859.16;4992155;28;20088;-74
2022/12/26 08:36:29;;;;;;;46.13;29.27;;;;;;;4.75;61.29;94858.06;4993220;28;20335;-75
2022/12/26 08:38:55;;;;;;;38.35;26.17;;;;;;;4.97;60.46;94842.97;4992870;28;20512;-74
2022/12/26 08:41:21;;;;;;;41.92;26.40;;;;;;;5.13;59.31;94841.25;4992967;28;20036;-75
2022/12/26 08:43:50;;;;;;;38.15;25.35;;;;;;;5.27;58.82;94842.38;4993273;28;20038;-76
2022/12/26 08:46:18;;;;;;;35.85;25.42;;;;;;;5.53;58.21;94846.72;4994849;28;20038;-74
2022/12/26 08:48:44;;;;;;;44.45;26.33;;;;;;;5.06;59.86;94838.81;4994389;28;20033;-73
2022/12/26 08:51:23;;;;;;;39.75;25.35;;;;;;;4.78;61.21;94828.59;4992719;28;20080;-75
2022/12/26 08:53:50;;;;;;;40.00;25.33;;;;;;;4.51;62.61;94828.63;4993684;28;20056;-74
2022/12/26 08:56:19;;;;;;;36.97;24.35;;;;;;;4.59;62.43;94824.75;4992765;28;20317;-74
2022/12/26 08:58:45;;;;;;;33.42;23.77;;;;;;;5.05;61.02;94818.75;4992668;28;20042;-75
2022/12/26 09:01:11;;;;;;;35.90;25.33;;;;;;;5.41;59.55;94824.25;4993748;28;20037;-73
2022/12/26 09:03:37;;;;;;;32.88;22.42;;;;;;;5.62;58.28;94818.03;4993140;28;20030;-74
2022/12/26 09:06:02;;;;;;;31.70;21.65;;;;;;;5.53;58.16;94798.44;4992233;28;20030;-74
2022/12/26 09:08:29;;;;;;;30.30;22.08;;;;;;;5.53;58.22;94820.34;4993415;28;20133;-73
2022/12/26 09:11:00;;;;;;;31.42;21.10;;;;;;;5.55;58.46;94817.47;4992207;28;20137;-75
2022/12/26 09:13:26;;;;;;;30.00;22.02;;;;;;;5.37;59.04;94815.25;4992451;28;20071;-74
2022/12/26 09:15:51;;;;;;;31.50;24.27;;;;;;;5.35;59.09;94818.16;4992261;28;20061;-74
2022/12/26 09:18:17;;;;;;;30.30;22.67;;;;;;;4.41;62.05;94812.72;4992679;28;20026;-74
2022/12/26 09:20:42;;;;;;;32.83;22.75;;;;;;;4.76;62.17;94811.41;4992234;28;20049;-74
2022/12/26 09:23:09;;;;;;;30.92;20.38;;;;;;;5.05;60.41;94816.13;4991278;28;20092;-74
2022/12/26 09:25:35;;;;;;;31.80;22.27;;;;;;;5.15;59.79;94818.03;4992813;28;20333;-74
2022/12/26 09:28:00;;;;;;;34.83;23.35;;;;;;;4.66;61.77;94807.66;4991560;28;20040;-74
2022/12/26 09:30:26;;;;;;;37.63;24.77;;;;;;;5.22;61.08;94828.38;4995444;28;20420;-74
2022/12/26 09:32:52;;;;;;;29.70;21.65;;;;;;;4.93;60.05;94804.97;4996605;28;20177;-74
2022/12/26 09:35:18;;;;;;;34.92;23.20;;;;;;;5.35;59.76;94817.34;4996516;28;20041;-74
2022/12/26 09:37:43;;;;;;;34.65;22.88;;;;;;;5.61;58.24;94805.88;4994646;28;20046;-74
2022/12/26 09:40:19;;;;;;;38.00;25.55;;;;;;;5.09;59.73;94813.75;4994956;28;20042;-74
2022/12/26 09:43:08;;;;;;;36.92;24.05;;;;;;;4.99;60.57;94819.00;4993571;28;20030;-75
2022/12/26 09:45:49;;;;;;;56.40;32.35;;;;;;;5.56;58.89;94813.78;4996567;28;20080;-74
2022/12/26 09:48:30;;;;;;;34.15;22.80;;;;;;;5.30;59.30;94814.69;4974617;28;20056;-75
2022/12/26 09:50:56;;;;;;;31.77;23.27;;;;;;;5.69;58.10;94801.94;4994040;28;20158;-74
2022/12/26 09:53:29;;;;;;;34.58;22.85;;;;;;;5.38;58.62;94791.25;4997538;28;20034;-74
2022/12/26 09:55:58;;;;;;;48.35;25.27;;;;;;;5.54;58.00;94795.56;4995683;28;20158;-73
2022/12/26 09:58:28;;;;;;;34.45;22.60;;;;;;;5.81;57.85;94810.44;4992874;28;20030;-75
2022/12/26 10:01:12;;;;;;;62.38;40.65;;;;;;;6.08;56.80;94810.25;4997340;28;20030;-75
2022/12/26 10:03:43;;;;;;;58.47;37.10;;;;;;;5.66;56.92;94771.59;4996141;28;20538;-75
2022/12/26 10:06:21;;;;;;;56.20;38.75;;;;;;;5.10;58.53;94789.78;4997156;28;20046;-74
2022/12/26 10:09:10;;;;;;;54.10;36.67;;;;;;;5.77;57.48;94796.19;4995030;28;20600;-74
2022/12/26 10:11:46;;;;;;;54.22;34.88;;;;;;;6.26;55.81;94788.69;4994914;28;20454;-74
2022/12/26 10:14:26;;;;;;;62.45;42.50;;;;;;;5.43;57.21;94746.41;4996271;28;20030;-75
2022/12/26 10:17:13;;;;;;;52.92;39.28;;;;;;;6.16;55.92;94780.75;4992657;28;20139;-74
2022/12/26 10:19:57;;;;;;;54.10;39.65;;;;;;;6.38;55.45;94781.28;5010981;28;20507;-74
2022/12/26 10:22:32;;;;;;;88.47;43.63;;;;;;;6.63;54.42;94768.09;4994884;28;20042;-75
2022/12/26 10:25:00;;;;;;;128.45;74.85;;;;;;;6.87;53.65;94765.69;4994036;28;20034;-75
2022/12/26 10:27:28;;;;;;;58.80;38.28;;;;;;;6.70;54.02;94754.63;5011081;28;20476;-73
2022/12/26 10:29:59;;;;;;;64.18;43.97;;;;;;;6.82;54.17;94758.56;4993563;28;20038;-74
2022/12/26 10:32:29;;;;;;;49.95;35.28;;;;;;;6.71;54.08;94759.63;4996851;28;20037;-74
2022/12/26 10:34:55;;;;;;;54.40;36.10;;;;;;;6.79;53.46;94732.66;4994435;28;20037;-74
2022/12/26 10:37:38;;;;;;;43.13;28.73;;;;;;;6.49;54.44;94758.31;4990162;28;20084;-75
2022/12/26 10:40:41;;;;;;;45.80;31.42;;;;;;;6.64;54.40;94747.75;5007342;28;20026;-75
2022/12/26 10:43:21;;;;;;;38.92;27.02;;;;;;;6.47;54.74;94763.84;5006645;28;20092;-74
2022/12/26 10:46:17;;;;;;;39.55;27.40;;;;;;;6.56;54.40;94733.19;4995743;28;20037;-74
2022/12/26 10:48:43;;;;;;;43.95;29.48;;;;;;;6.71;54.06;94727.91;4994276;28;20029;-75
2022/12/26 10:51:11;;;;;;;46.47;29.23;;;;;;;6.48;55.31;94746.94;4993403;28;20156;-74
2022/12/26 10:53:41;;;;;;;37.03;25.38;;;;;;;6.40;54.69;94742.19;4993898;28;20037;-74
2022/12/26 10:56:07;;;;;;;40.38;23.40;;;;;;;6.37;54.75;94735.56;4995546;28;20042;-76
2022/12/26 10:58:36;;;;;;;35.15;23.38;;;;;;;6.74;54.36;94735.31;4993652;28;20081;-75
2022/12/26 11:01:46;;;;;;;34.63;23.50;;;;;;;6.54;54.58;94742.47;4992966;28;20095;-74
2022/12/26 11:04:22;;;;;;;30.23;22.10;;;;;;;6.33;55.06;94745.09;4994088;28;20125;-74
2022/12/26 11:06:51;;;;;;;30.55;22.80;;;;;;;6.63;54.28;94717.88;4991072;28;20030;-73
2022/12/26 11:09:35;;;;;;;30.02;21.55;;;;;;;6.85;53.63;94736.06;4991416;28;20034;-75
2022/12/26 11:12:02;;;;;;;30.05;23.95;;;;;;;6.96;53.51;94728.91;4993456;28;20045;-74
2022/12/26 11:14:30;;;;;;;28.73;20.92;;;;;;;6.41;55.15;94727.91;4993360;28;20601;-74
2022/12/26 11:16:59;;;;;;;29.30;20.08;;;;;;;6.12;55.28;94724.16;4994505;28;20145;-74
2022/12/26 11:19:40;;;;;;;27.20;19.00;;;;;;;6.42;55.10;94727.66;4993664;28;20353;-75
2022/12/26 11:22:26;;;;;;;28.27;18.83;;;;;;;6.79;54.19;94722.09;4992813;28;20029;-76
2022/12/26 11:25:10;;;;;;;28.67;18.00;;;;;;;6.40;54.88;94723.69;4988449;28;20033;-74
2022/12/26 11:27:39;;;;;;;26.88;17.05;;;;;;;6.40;54.70;94694.63;4995725;28;20028;-75
2022/12/26 11:30:13;;;;;;;29.88;18.17;;;;;;;6.65;54.33;94710.44;4992768;28;20052;-74
2022/12/26 11:32:41;;;;;;;22.65;16.90;;;;;;;6.57;54.42;94695.13;4995547;28;20623;-74
2022/12/26 11:35:17;;;;;;;29.02;17.35;;;;;;;6.92;53.36;94690.84;4994201;28;20127;-75
2022/12/26 11:37:45;;;;;;;27.75;16.27;;;;;;;6.84;53.31;94708.88;4993039;28;20107;-74
2022/12/26 11:40:20;;;;;;;25.13;16.77;;;;;;;7.14;53.22;94707.19;4995350;28;20038;-76
2022/12/26 11:42:54;;;;;;;;;;;;;;;7.31;52.61;94699.72;4994069;28;20064;-76
2022/12/26 11:45:23;;;;;;;23.65;13.55;;;;;;;7.23;52.66;94695.00;4993834;28;19972;-74
2022/12/26 11:47:50;;;;;;;28.75;15.18;;;;;;;7.59;51.83;94693.75;4993207;28;20182;-74
2022/12/26 11:50:20;;;;;;;21.05;14.15;;;;;;;7.13;53.41;94687.09;4996125;28;20079;-74
2022/12/26 11:52:54;;;;;;;21.60;14.18;;;;;;;7.27;52.85;94685.44;5008332;28;20081;-75
2022/12/26 11:55:23;;;;;;;21.48;15.02;;;;;;;7.30;52.70;94696.28;4993624;28;20037;-74
2022/12/26 11:57:56;;;;;;;26.67;14.32;;;;;;;7.31;52.63;94694.44;4995017;28;20053;-73
2022/12/26 12:00:23;;;;;;;20.58;13.63;;;;;;;7.55;51.90;94676.84;4992535;28;20037;-75
2022/12/26 12:02:49;;;;;;;23.88;14.32;;;;;;;7.30;52.50;94682.25;4991486;28;20042;-74
2022/12/26 12:05:34;;;;;;;19.77;13.93;;;;;;;7.35;52.42;94678.78;4992387;28;20061;-74
2022/12/26 12:08:14;;;;;;;;;;;;;;;7.56;51.93;94680.28;4992587;28;21299;-75
2022/12/26 12:10:58;;;;;;;21.73;13.32;;;;;;;7.43;51.95;94676.38;4998467;28;20012;-76
2022/12/26 12:14:19;;;;;;;22.95;12.75;;;;;;;7.35;52.60;94673.50;5005772;28;20606;-74
2022/12/26 12:17:13;;;;;;;19.00;13.70;;;;;;;7.42;52.36;94661.56;4944091;28;20057;-75
2022/12/26 12:19:44;;;;;;;18.33;12.27;;;;;;;7.67;51.37;94669.38;4971080;28;20189;-74
2022/12/26 12:22:34;;;;;;;17.27;12.85;;;;;;;7.38;51.85;94671.13;4992525;28;20038;-75
2022/12/26 12:25:15;;;;;;;20.42;12.85;;;;;;;7.60;51.98;94663.59;4990931;28;20095;-75
2022/12/26 12:28:00;;;;;;;20.05;12.50;;;;;;;7.80;51.02;94661.91;4993650;28;20591;-74
2022/12/26 12:30:26;;;;;;;;;;;;;;;7.91;50.96;94664.22;4973202;28;20088;-74
2022/12/26 12:33:06;;;;;;;17.37;10.70;;;;;;;7.79;50.55;94661.13;4990677;28;20007;-75
2022/12/26 12:35:46;;;;;;;18.42;11.02;;;;;;;7.78;50.94;94664.06;4979488;28;20286;-74
2022/12/26 12:38:29;;;;;;;20.20;12.25;;;;;;;7.22;51.67;94643.13;4983543;28;20168;-74
2022/12/26 12:41:05;;;;;;;21.38;12.95;;;;;;;7.53;51.90;94662.31;4986731;28;20042;-74
2022/12/26 12:43:52;;;;;;;21.23;11.38;;;;;;;7.91;51.18;94668.72;4993955;28;20042;-74
2022/12/26 12:46:21;;;;;;;16.60;10.07;;;;;;;7.69;50.59;94661.94;4992976;28;20033;-74
2022/12/26 12:49:04;;;;;;;15.63;9.40;;;;;;;7.41;51.19;94654.69;4994456;28;20044;-75
2022/12/26 12:51:47;;;;;;;17.35;10.77;;;;;;;7.59;50.96;94656.69;4994270;28;20026;-74
2022/12/26 12:54:55;;;;;;;15.68;8.63;;;;;;;7.58;50.63;94667.59;4994411;28;20042;-75
2022/12/26 12:57:38;;;;;;;12.82;8.32;;;;;;;7.34;51.41;94656.81;4990289;28;20042;-75
2022/12/26 13:00:03;;;;;;;12.73;7.55;;;;;;;7.35;51.02;94662.91;5005481;28;20038;-74
2022/12/26 13:02:38;;;;;;;13.55;7.80;;;;;;;7.29;50.98;94659.50;4993575;28;20089;-74
2022/12/26 13:05:27;;;;;;;14.15;7.32;;;;;;;7.53;50.97;94665.72;4995494;28;20088;-74
2022/12/26 13:08:03;;;;;;;12.93;7.32;;;;;;;8.02;49.94;94659.66;4998110;28;20808;-74
2022/12/26 13:10:33;;;;;;;52.78;26.42;;;;;;;8.56;49.85;94657.59;4995869;28;20045;-75
2022/12/26 13:13:10;;;;;;;37.35;22.65;;;;;;;8.73;49.86;94651.88;4996236;28;20030;-74
2022/12/26 13:15:45;;;;;;;17.98;12.30;;;;;;;8.78;49.78;94651.03;4997053;28;20046;-76
2022/12/26 13:18:21;;;;;;;18.92;11.13;;;;;;;8.95;49.91;94654.03;4995357;28;20516;-74
2022/12/26 13:20:54;;;;;;;23.88;14.00;;;;;;;8.88;49.68;94653.56;4995394;28;20504;-75
2022/12/26 13:26:42;;;;;;;53.35;31.52;;;;;;;8.77;49.52;94650.25;4995112;28;20080;-75
2022/12/26 13:29:26;;;;;;;37.45;24.25;;;;;;;8.83;49.34;94661.59;4997585;28;20042;-74
2022/12/26 13:31:51;;;;;;;44.70;26.88;;;;;;;8.76;49.65;94647.84;4994783;28;20963;-74
2022/12/26 13:34:19;;;;;;;42.53;28.15;;;;;;;8.83;49.29;94658.94;4998684;28;20186;-74
2022/12/26 13:36:48;;;;;;;32.75;21.52;;;;;;;8.79;49.77;94650.75;4996548;28;20033;-75
2022/12/26 13:39:35;;;;;;;33.78;20.83;;;;;;;8.92;49.37;94657.25;4995455;28;20053;-75
2022/12/26 13:44:51;;;;;;;20.52;14.20;;;;;;;8.48;49.69;94631.69;4997155;28;20044;-75
2022/12/26 13:47:37;;;;;;;21.48;12.30;;;;;;;8.65;49.74;94668.41;4996996;28;20104;-75
2022/12/26 13:50:40;;;;;;;28.67;19.48;;;;;;;8.67;49.33;94655.63;4996689;28;20030;-74
2022/12/26 13:53:39;;;;;;;29.20;20.35;;;;;;;8.64;49.27;94655.41;4996289;28;20092;-75
2022/12/26 13:56:17;;;;;;;25.27;16.60;;;;;;;8.83;49.05;94670.34;4994781;28;20574;-74
2022/12/26 13:58:48;;;;;;;21.63;14.77;;;;;;;8.70;49.34;94672.88;4994537;28;20119;-74
2022/12/26 14:01:38;;;;;;;30.63;21.13;;;;;;;8.54;49.63;94666.91;4997750;28;20136;-74
2022/12/26 14:04:14;;;;;;;25.42;17.58;;;;;;;8.60;49.56;94660.50;4994370;28;20032;-75
2022/12/26 14:07:16;;;;;;;21.25;13.63;;;;;;;8.60;49.24;94665.81;4996469;28;20033;-74